sensor_id;sensor_type;location;lat;lon;timestamp;temperature;humidity
6052;DHT22;3054;51.204;4.430;2022-07-19T00:02:22;28.01;41.00
6052;DHT22;3054;51.204;4.430;2022-07-19T00:04:49;28.01;41.04
6052;DHT22;3054;51.204;4.430;2022-07-19T00:07:15;27.94;41.16
6052;DHT22;3054;51.204;4.430;2022-07-19T00:09:42;27.90;41.23
6052;DHT22;3054;51.204;4.430;2022-07-19T00:12:09;27.87;41.28
6052;DHT22;3054;51.204;4.430;2022-07-19T00:14:40;27.84;41.33
6052;DHT22;3054;51.204;4.430;2022-07-19T00:17:07;27.82;41.35
6052;DHT22;3054;51.204;4.430;2022-07-19T00:19:34;27.79;41.37
6052;DHT22;3054;51.204;4.430;2022-07-19T00:22:01;27.78;41.39
6052;DHT22;3054;51.204;4.430;2022-07-19T00:24:28;27.79;41.33
6052;DHT22;3054;51.204;4.430;2022-07-19T00:26:56;27.76;41.34
6052;DHT22;3054;51.204;4.430;2022-07-19T00:29:23;27.74;41.40
6052;DHT22;3054;51.204;4.430;2022-07-19T00:31:51;27.70;41.46
6052;DHT22;3054;51.204;4.430;2022-07-19T00:34:18;27.65;41.62
6052;DHT22;3054;51.204;4.430;2022-07-19T00:36:45;27.57;41.79
6052;DHT22;3054;51.204;4.430;2022-07-19T00:39:12;27.55;41.81
6052;DHT22;3054;51.204;4.430;2022-07-19T00:41:39;27.56;41.90
6052;DHT22;3054;51.204;4.430;2022-07-19T00:44:07;27.55;41.93
6052;DHT22;3054;51.204;4.430;2022-07-19T00:46:34;27.53;41.97
6052;DHT22;3054;51.204;4.430;2022-07-19T00:49:03;27.50;42.06
6052;DHT22;3054;51.204;4.430;2022-07-19T00:51:33;27.49;42.13
6052;DHT22;3054;51.204;4.430;2022-07-19T00:54:01;27.46;42.19
6052;DHT22;3054;51.204;4.430;2022-07-19T00:56:30;27.44;42.30
6052;DHT22;3054;51.204;4.430;2022-07-19T00:58:59;27.42;42.39
6052;DHT22;3054;51.204;4.430;2022-07-19T01:01:26;27.40;42.43
6052;DHT22;3054;51.204;4.430;2022-07-19T01:03:54;27.41;42.53
6052;DHT22;3054;51.204;4.430;2022-07-19T01:06:23;27.39;42.59
6052;DHT22;3054;51.204;4.430;2022-07-19T01:08:50;27.36;42.62
6052;DHT22;3054;51.204;4.430;2022-07-19T01:11:17;27.32;42.76
6052;DHT22;3054;51.204;4.430;2022-07-19T01:13:44;27.27;42.88
6052;DHT22;3054;51.204;4.430;2022-07-19T01:16:12;27.27;42.90
6052;DHT22;3054;51.204;4.430;2022-07-19T01:18:39;27.27;42.93
6052;DHT22;3054;51.204;4.430;2022-07-19T01:21:07;27.26;42.99
6052;DHT22;3054;51.204;4.430;2022-07-19T01:23:37;27.23;43.06
6052;DHT22;3054;51.204;4.430;2022-07-19T01:26:04;27.22;43.13
6052;DHT22;3054;51.204;4.430;2022-07-19T01:28:31;27.19;43.23
6052;DHT22;3054;51.204;4.430;2022-07-19T01:30:58;27.12;43.31
6052;DHT22;3054;51.204;4.430;2022-07-19T01:33:25;27.10;43.42
6052;DHT22;3054;51.204;4.430;2022-07-19T01:35:52;27.06;43.53
6052;DHT22;3054;51.204;4.430;2022-07-19T01:38:19;27.05;43.62
6052;DHT22;3054;51.204;4.430;2022-07-19T01:40:47;27.01;43.74
6052;DHT22;3054;51.204;4.430;2022-07-19T01:43:14;27.00;43.77
6052;DHT22;3054;51.204;4.430;2022-07-19T01:45:41;26.97;43.91
6052;DHT22;3054;51.204;4.430;2022-07-19T01:48:08;26.95;43.99
6052;DHT22;3054;51.204;4.430;2022-07-19T01:50:35;26.95;44.00
6052;DHT22;3054;51.204;4.430;2022-07-19T01:53:02;26.90;44.18
6052;DHT22;3054;51.204;4.430;2022-07-19T01:55:29;26.86;44.33
6052;DHT22;3054;51.204;4.430;2022-07-19T01:57:57;26.89;44.44
6052;DHT22;3054;51.204;4.430;2022-07-19T02:00:24;26.86;44.38
6052;DHT22;3054;51.204;4.430;2022-07-19T02:02:51;26.85;44.42
6052;DHT22;3054;51.204;4.430;2022-07-19T02:05:19;26.85;44.51
6052;DHT22;3054;51.204;4.430;2022-07-19T02:07:46;26.80;44.70
6052;DHT22;3054;51.204;4.430;2022-07-19T02:10:13;26.78;44.76
6052;DHT22;3054;51.204;4.430;2022-07-19T02:12:40;26.73;44.81
6052;DHT22;3054;51.204;4.430;2022-07-19T02:15:09;26.71;44.86
6052;DHT22;3054;51.204;4.430;2022-07-19T02:17:37;26.68;44.96
6052;DHT22;3054;51.204;4.430;2022-07-19T02:20:04;26.66;44.96
6052;DHT22;3054;51.204;4.430;2022-07-19T02:22:31;26.63;45.00
6052;DHT22;3054;51.204;4.430;2022-07-19T02:24:58;26.61;45.15
6052;DHT22;3054;51.204;4.430;2022-07-19T02:27:26;26.61;45.19
6052;DHT22;3054;51.204;4.430;2022-07-19T02:29:54;26.60;45.26
6052;DHT22;3054;51.204;4.430;2022-07-19T02:32:22;26.56;45.34
6052;DHT22;3054;51.204;4.430;2022-07-19T02:34:49;26.57;45.40
6052;DHT22;3054;51.204;4.430;2022-07-19T02:37:15;26.54;45.54
6052;DHT22;3054;51.204;4.430;2022-07-19T02:39:42;26.50;45.62
6052;DHT22;3054;51.204;4.430;2022-07-19T02:42:09;26.45;45.65
6052;DHT22;3054;51.204;4.430;2022-07-19T02:44:36;26.42;45.65
6052;DHT22;3054;51.204;4.430;2022-07-19T02:47:03;26.46;45.69
6052;DHT22;3054;51.204;4.430;2022-07-19T02:49:31;26.42;45.68
6052;DHT22;3054;51.204;4.430;2022-07-19T02:51:58;26.39;45.69
6052;DHT22;3054;51.204;4.430;2022-07-19T02:54:24;26.39;45.70
6052;DHT22;3054;51.204;4.430;2022-07-19T02:56:52;26.37;45.79
6052;DHT22;3054;51.204;4.430;2022-07-19T02:59:19;26.34;45.81
6052;DHT22;3054;51.204;4.430;2022-07-19T03:01:46;26.32;45.76
6052;DHT22;3054;51.204;4.430;2022-07-19T03:04:13;26.28;45.71
6052;DHT22;3054;51.204;4.430;2022-07-19T03:06:44;26.28;45.73
6052;DHT22;3054;51.204;4.430;2022-07-19T03:09:11;26.25;45.73
6052;DHT22;3054;51.204;4.430;2022-07-19T03:11:39;26.23;45.67
6052;DHT22;3054;51.204;4.430;2022-07-19T03:14:06;26.20;45.67
6052;DHT22;3054;51.204;4.430;2022-07-19T03:16:33;26.19;45.66
6052;DHT22;3054;51.204;4.430;2022-07-19T03:18:59;26.16;45.67
6052;DHT22;3054;51.204;4.430;2022-07-19T03:21:26;26.13;45.67
6052;DHT22;3054;51.204;4.430;2022-07-19T03:23:55;26.11;45.72
6052;DHT22;3054;51.204;4.430;2022-07-19T03:26:22;26.10;45.76
6052;DHT22;3054;51.204;4.430;2022-07-19T03:28:49;26.07;45.86
6052;DHT22;3054;51.204;4.430;2022-07-19T03:31:15;26.03;45.94
6052;DHT22;3054;51.204;4.430;2022-07-19T03:33:42;26.02;46.06
6052;DHT22;3054;51.204;4.430;2022-07-19T03:36:09;26.04;46.02
6052;DHT22;3054;51.204;4.430;2022-07-19T03:38:38;25.97;46.20
6052;DHT22;3054;51.204;4.430;2022-07-19T03:41:06;25.93;46.38
6052;DHT22;3054;51.204;4.430;2022-07-19T03:43:33;25.93;46.50
6052;DHT22;3054;51.204;4.430;2022-07-19T03:45:59;25.91;46.62
6052;DHT22;3054;51.204;4.430;2022-07-19T03:48:26;25.88;46.67
6052;DHT22;3054;51.204;4.430;2022-07-19T03:50:53;25.87;46.71
6052;DHT22;3054;51.204;4.430;2022-07-19T03:53:20;25.83;46.78
6052;DHT22;3054;51.204;4.430;2022-07-19T03:55:47;25.84;46.80
6052;DHT22;3054;51.204;4.430;2022-07-19T03:58:15;25.83;46.81
6052;DHT22;3054;51.204;4.430;2022-07-19T04:00:43;25.79;46.87
6052;DHT22;3054;51.204;4.430;2022-07-19T04:03:11;25.75;46.99
6052;DHT22;3054;51.204;4.430;2022-07-19T04:05:40;25.73;47.04
6052;DHT22;3054;51.204;4.430;2022-07-19T04:08:07;25.73;47.11
6052;DHT22;3054;51.204;4.430;2022-07-19T04:10:34;25.71;47.15
6052;DHT22;3054;51.204;4.430;2022-07-19T04:13:00;25.67;47.22
6052;DHT22;3054;51.204;4.430;2022-07-19T04:15:29;25.66;47.33
6052;DHT22;3054;51.204;4.430;2022-07-19T04:17:56;25.72;47.26
6052;DHT22;3054;51.204;4.430;2022-07-19T04:20:22;25.69;47.25
6052;DHT22;3054;51.204;4.430;2022-07-19T04:22:49;25.69;47.22
6052;DHT22;3054;51.204;4.430;2022-07-19T04:25:17;25.66;47.25
6052;DHT22;3054;51.204;4.430;2022-07-19T04:27:44;25.65;47.25
6052;DHT22;3054;51.204;4.430;2022-07-19T04:30:12;25.64;47.22
6052;DHT22;3054;51.204;4.430;2022-07-19T04:32:40;25.63;47.21
6052;DHT22;3054;51.204;4.430;2022-07-19T04:35:08;25.58;47.27
6052;DHT22;3054;51.204;4.430;2022-07-19T04:37:35;25.59;47.25
6052;DHT22;3054;51.204;4.430;2022-07-19T04:40:02;25.56;47.29
6052;DHT22;3054;51.204;4.430;2022-07-19T04:42:29;25.50;47.35
6052;DHT22;3054;51.204;4.430;2022-07-19T04:44:56;25.46;47.47
6052;DHT22;3054;51.204;4.430;2022-07-19T04:47:23;25.44;47.47
6052;DHT22;3054;51.204;4.430;2022-07-19T04:49:52;25.44;47.49
6052;DHT22;3054;51.204;4.430;2022-07-19T04:52:19;25.43;47.50
6052;DHT22;3054;51.204;4.430;2022-07-19T04:54:46;25.43;47.47
6052;DHT22;3054;51.204;4.430;2022-07-19T04:57:13;25.46;47.44
6052;DHT22;3054;51.204;4.430;2022-07-19T04:59:40;25.54;47.29
6052;DHT22;3054;51.204;4.430;2022-07-19T05:02:07;25.62;47.12
6052;DHT22;3054;51.204;4.430;2022-07-19T05:04:34;25.66;46.99
6052;DHT22;3054;51.204;4.430;2022-07-19T05:07:03;25.72;46.83
6052;DHT22;3054;51.204;4.430;2022-07-19T05:09:30;25.78;46.70
6052;DHT22;3054;51.204;4.430;2022-07-19T05:11:56;25.86;46.50
6052;DHT22;3054;51.204;4.430;2022-07-19T05:14:24;25.91;46.38
6052;DHT22;3054;51.204;4.430;2022-07-19T05:16:50;25.97;46.25
6052;DHT22;3054;51.204;4.430;2022-07-19T05:19:18;26.08;46.11
6052;DHT22;3054;51.204;4.430;2022-07-19T05:21:45;26.13;45.90
6052;DHT22;3054;51.204;4.430;2022-07-19T05:24:14;26.21;45.68
6052;DHT22;3054;51.204;4.430;2022-07-19T05:26:41;26.23;45.50
6052;DHT22;3054;51.204;4.430;2022-07-19T05:29:08;26.26;45.39
6052;DHT22;3054;51.204;4.430;2022-07-19T05:31:35;26.31;45.28
6052;DHT22;3054;51.204;4.430;2022-07-19T05:34:02;26.35;45.17
6052;DHT22;3054;51.204;4.430;2022-07-19T05:36:29;26.42;45.04
6052;DHT22;3054;51.204;4.430;2022-07-19T05:38:56;26.53;44.86
6052;DHT22;3054;51.204;4.430;2022-07-19T05:41:24;26.56;44.66
6052;DHT22;3054;51.204;4.430;2022-07-19T05:43:52;26.58;44.58
6052;DHT22;3054;51.204;4.430;2022-07-19T05:46:19;26.70;44.37
6052;DHT22;3054;51.204;4.430;2022-07-19T05:48:46;26.79;44.23
6052;DHT22;3054;51.204;4.430;2022-07-19T05:51:13;26.84;44.06
6052;DHT22;3054;51.204;4.430;2022-07-19T05:53:43;26.89;44.00
6052;DHT22;3054;51.204;4.430;2022-07-19T05:56:10;26.96;43.84
6052;DHT22;3054;51.204;4.430;2022-07-19T05:58:38;26.99;43.78
6052;DHT22;3054;51.204;4.430;2022-07-19T06:01:05;27.10;43.68
6052;DHT22;3054;51.204;4.430;2022-07-19T06:03:46;27.15;43.67
6052;DHT22;3054;51.204;4.430;2022-07-19T06:06:13;27.25;43.56
6052;DHT22;3054;51.204;4.430;2022-07-19T06:08:41;27.25;43.56
6052;DHT22;3054;51.204;4.430;2022-07-19T06:11:08;27.27;43.57
6052;DHT22;3054;51.204;4.430;2022-07-19T06:13:36;27.34;43.48
6052;DHT22;3054;51.204;4.430;2022-07-19T06:16:05;27.42;43.38
6052;DHT22;3054;51.204;4.430;2022-07-19T06:18:32;27.53;43.26
6052;DHT22;3054;51.204;4.430;2022-07-19T06:21:01;27.65;43.09
6052;DHT22;3054;51.204;4.430;2022-07-19T06:23:28;27.78;43.00
6052;DHT22;3054;51.204;4.430;2022-07-19T06:25:55;27.91;42.78
6052;DHT22;3054;51.204;4.430;2022-07-19T06:28:23;27.97;42.69
6052;DHT22;3054;51.204;4.430;2022-07-19T06:30:50;28.00;42.65
6052;DHT22;3054;51.204;4.430;2022-07-19T06:33:19;28.10;42.54
6052;DHT22;3054;51.204;4.430;2022-07-19T06:35:47;28.20;42.42
6052;DHT22;3054;51.204;4.430;2022-07-19T06:38:14;28.35;42.23
6052;DHT22;3054;51.204;4.430;2022-07-19T06:40:41;28.52;42.01
6052;DHT22;3054;51.204;4.430;2022-07-19T06:43:09;28.70;41.76
6052;DHT22;3054;51.204;4.430;2022-07-19T06:45:36;28.83;41.49
6052;DHT22;3054;51.204;4.430;2022-07-19T06:48:04;28.94;41.27
6052;DHT22;3054;51.204;4.430;2022-07-19T06:50:33;29.04;41.16
6052;DHT22;3054;51.204;4.430;2022-07-19T06:52:59;29.14;41.02
6052;DHT22;3054;51.204;4.430;2022-07-19T06:55:27;29.24;40.86
6052;DHT22;3054;51.204;4.430;2022-07-19T06:57:54;29.33;40.68
6052;DHT22;3054;51.204;4.430;2022-07-19T07:00:21;29.52;40.50
6052;DHT22;3054;51.204;4.430;2022-07-19T07:02:48;29.66;40.20
6052;DHT22;3054;51.204;4.430;2022-07-19T07:05:15;29.78;39.99
6052;DHT22;3054;51.204;4.430;2022-07-19T07:07:44;29.89;39.73
6052;DHT22;3054;51.204;4.430;2022-07-19T07:10:11;30.01;39.43
6052;DHT22;3054;51.204;4.430;2022-07-19T07:12:38;30.16;39.26
6052;DHT22;3054;51.204;4.430;2022-07-19T07:15:06;30.33;38.82
6052;DHT22;3054;51.204;4.430;2022-07-19T07:17:33;30.42;38.59
6052;DHT22;3054;51.204;4.430;2022-07-19T07:20:00;30.57;38.30
6052;DHT22;3054;51.204;4.430;2022-07-19T07:22:27;30.69;38.11
6052;DHT22;3054;51.204;4.430;2022-07-19T07:24:55;30.84;37.88
6052;DHT22;3054;51.204;4.430;2022-07-19T07:27:22;30.98;37.33
6052;DHT22;3054;51.204;4.430;2022-07-19T07:29:49;31.10;36.92
6052;DHT22;3054;51.204;4.430;2022-07-19T07:32:17;31.25;36.44
6052;DHT22;3054;51.204;4.430;2022-07-19T07:34:44;31.41;35.96
6052;DHT22;3054;51.204;4.430;2022-07-19T07:37:11;31.49;35.37
6052;DHT22;3054;51.204;4.430;2022-07-19T07:39:38;31.54;35.12
6052;DHT22;3054;51.204;4.430;2022-07-19T07:42:06;31.70;34.75
6052;DHT22;3054;51.204;4.430;2022-07-19T07:44:33;31.80;34.47
6052;DHT22;3054;51.204;4.430;2022-07-19T07:47:00;31.89;34.01
6052;DHT22;3054;51.204;4.430;2022-07-19T07:49:27;32.01;33.57
6052;DHT22;3054;51.204;4.430;2022-07-19T07:51:55;32.15;33.29
6052;DHT22;3054;51.204;4.430;2022-07-19T07:54:22;32.31;33.11
6052;DHT22;3054;51.204;4.430;2022-07-19T07:56:49;32.45;33.10
6052;DHT22;3054;51.204;4.430;2022-07-19T07:59:17;32.56;33.00
6052;DHT22;3054;51.204;4.430;2022-07-19T08:01:44;32.71;32.92
6052;DHT22;3054;51.204;4.430;2022-07-19T08:04:11;32.86;32.57
6052;DHT22;3054;51.204;4.430;2022-07-19T08:06:38;32.97;32.43
6052;DHT22;3054;51.204;4.430;2022-07-19T08:09:05;33.07;32.19
6052;DHT22;3054;51.204;4.430;2022-07-19T08:11:32;33.27;32.01
6052;DHT22;3054;51.204;4.430;2022-07-19T08:13:59;33.42;31.73
6052;DHT22;3054;51.204;4.430;2022-07-19T08:16:28;33.52;31.54
6052;DHT22;3054;51.204;4.430;2022-07-19T08:18:54;33.59;31.40
6052;DHT22;3054;51.204;4.430;2022-07-19T08:21:22;33.67;31.47
6052;DHT22;3054;51.204;4.430;2022-07-19T08:23:49;33.90;31.37
6052;DHT22;3054;51.204;4.430;2022-07-19T08:26:17;34.10;31.14
6052;DHT22;3054;51.204;4.430;2022-07-19T08:28:44;34.24;31.06
6052;DHT22;3054;51.204;4.430;2022-07-19T08:31:12;34.40;30.84
6052;DHT22;3054;51.204;4.430;2022-07-19T08:33:40;34.54;30.61
6052;DHT22;3054;51.204;4.430;2022-07-19T08:36:08;34.66;30.33
6052;DHT22;3054;51.204;4.430;2022-07-19T08:38:37;34.82;30.19
6052;DHT22;3054;51.204;4.430;2022-07-19T08:41:04;34.94;30.12
6052;DHT22;3054;51.204;4.430;2022-07-19T08:43:31;35.10;30.00
6052;DHT22;3054;51.204;4.430;2022-07-19T08:45:59;35.30;29.67
6052;DHT22;3054;51.204;4.430;2022-07-19T08:48:30;35.33;29.37
6052;DHT22;3054;51.204;4.430;2022-07-19T08:50:59;35.40;29.23
6052;DHT22;3054;51.204;4.430;2022-07-19T08:53:29;35.66;29.01
6052;DHT22;3054;51.204;4.430;2022-07-19T08:55:56;35.80;28.77
6052;DHT22;3054;51.204;4.430;2022-07-19T08:58:23;36.01;28.51
6052;DHT22;3054;51.204;4.430;2022-07-19T09:00:49;36.16;27.90
6052;DHT22;3054;51.204;4.430;2022-07-19T09:03:16;36.36;27.52
6052;DHT22;3054;51.204;4.430;2022-07-19T09:05:43;36.76;27.13
6052;DHT22;3054;51.204;4.430;2022-07-19T09:08:13;37.04;26.76
6052;DHT22;3054;51.204;4.430;2022-07-19T09:10:43;37.64;26.25
6052;DHT22;3054;51.204;4.430;2022-07-19T09:13:31;38.52;25.17
6052;DHT22;3054;51.204;4.430;2022-07-19T09:15:58;39.63;24.02
6052;DHT22;3054;51.204;4.430;2022-07-19T09:18:27;40.96;22.86
6052;DHT22;3054;51.204;4.430;2022-07-19T09:20:55;42.58;21.57
6052;DHT22;3054;51.204;4.430;2022-07-19T09:23:24;44.45;20.40
6052;DHT22;3054;51.204;4.430;2022-07-19T09:25:52;46.29;19.22
6052;DHT22;3054;51.204;4.430;2022-07-19T09:28:21;47.91;18.09
6052;DHT22;3054;51.204;4.430;2022-07-19T09:30:49;49.43;17.06
6052;DHT22;3054;51.204;4.430;2022-07-19T09:33:17;51.03;16.00
6052;DHT22;3054;51.204;4.430;2022-07-19T09:35:46;52.37;15.10
6052;DHT22;3054;51.204;4.430;2022-07-19T09:38:17;53.57;14.33
6052;DHT22;3054;51.204;4.430;2022-07-19T09:40:46;54.74;13.66
6052;DHT22;3054;51.204;4.430;2022-07-19T09:43:14;55.71;12.98
6052;DHT22;3054;51.204;4.430;2022-07-19T09:45:41;56.38;12.51
6052;DHT22;3054;51.204;4.430;2022-07-19T09:48:08;57.03;12.05
6052;DHT22;3054;51.204;4.430;2022-07-19T09:50:35;57.75;11.73
6052;DHT22;3054;51.204;4.430;2022-07-19T09:53:03;58.58;11.20
6052;DHT22;3054;51.204;4.430;2022-07-19T09:55:31;59.10;10.79
6052;DHT22;3054;51.204;4.430;2022-07-19T09:58:00;59.67;10.51
6052;DHT22;3054;51.204;4.430;2022-07-19T10:00:29;60.03;10.23
6052;DHT22;3054;51.204;4.430;2022-07-19T10:02:57;60.39;9.97
6052;DHT22;3054;51.204;4.430;2022-07-19T10:05:26;61.02;9.50
6052;DHT22;3054;51.204;4.430;2022-07-19T10:07:53;61.59;9.20
6052;DHT22;3054;51.204;4.430;2022-07-19T10:10:22;62.15;8.92
6052;DHT22;3054;51.204;4.430;2022-07-19T10:12:49;62.43;8.71
6052;DHT22;3054;51.204;4.430;2022-07-19T10:15:19;63.14;8.46
6052;DHT22;3054;51.204;4.430;2022-07-19T10:17:54;63.30;8.34
6052;DHT22;3054;51.204;4.430;2022-07-19T10:20:26;63.28;8.18
6052;DHT22;3054;51.204;4.430;2022-07-19T10:22:57;63.59;8.05
6052;DHT22;3054;51.204;4.430;2022-07-19T10:25:24;63.32;7.98
6052;DHT22;3054;51.204;4.430;2022-07-19T10:28:03;63.53;7.88
6052;DHT22;3054;51.204;4.430;2022-07-19T10:30:39;64.47;7.47
6052;DHT22;3054;51.204;4.430;2022-07-19T10:33:26;64.81;7.22
6052;DHT22;3054;51.204;4.430;2022-07-19T10:35:53;64.74;7.23
6052;DHT22;3054;51.204;4.430;2022-07-19T10:38:20;64.80;6.96
6052;DHT22;3054;51.204;4.430;2022-07-19T10:40:49;64.32;6.94
6052;DHT22;3054;51.204;4.430;2022-07-19T10:43:18;64.37;6.79
6052;DHT22;3054;51.204;4.430;2022-07-19T10:46:08;64.40;6.35
6052;DHT22;3054;51.204;4.430;2022-07-19T10:48:37;62.87;5.22
6052;DHT22;3054;51.204;4.430;2022-07-19T10:51:04;60.78;4.41
6052;DHT22;3054;51.204;4.430;2022-07-19T10:53:56;58.60;4.86
6052;DHT22;3054;51.204;4.430;2022-07-19T10:56:32;56.65;5.76
6052;DHT22;3054;51.204;4.430;2022-07-19T10:59:01;54.83;6.40
6052;DHT22;3054;51.204;4.430;2022-07-19T11:01:30;53.46;6.93
6052;DHT22;3054;51.204;4.430;2022-07-19T11:04:24;52.31;7.28
6052;DHT22;3054;51.204;4.430;2022-07-19T11:07:02;51.00;7.63
6052;DHT22;3054;51.204;4.430;2022-07-19T11:09:40;49.90;8.01
6052;DHT22;3054;51.204;4.430;2022-07-19T11:12:32;48.99;8.29
6052;DHT22;3054;51.204;4.430;2022-07-19T11:15:01;47.87;8.90
6052;DHT22;3054;51.204;4.430;2022-07-19T11:17:29;47.35;9.24
6052;DHT22;3054;51.204;4.430;2022-07-19T11:20:01;47.02;9.48
6052;DHT22;3054;51.204;4.430;2022-07-19T11:22:35;46.78;9.61
6052;DHT22;3054;51.204;4.430;2022-07-19T11:25:03;46.53;9.74
6052;DHT22;3054;51.204;4.430;2022-07-19T11:27:30;46.33;9.83
6052;DHT22;3054;51.204;4.430;2022-07-19T11:30:00;46.16;9.85
6052;DHT22;3054;51.204;4.430;2022-07-19T11:32:29;46.66;9.90
6052;DHT22;3054;51.204;4.430;2022-07-19T11:34:59;48.46;10.34
6052;DHT22;3054;51.204;4.430;2022-07-19T11:37:28;51.71;10.56
6052;DHT22;3054;51.204;4.430;2022-07-19T11:39:55;54.74;9.54
6052;DHT22;3054;51.204;4.430;2022-07-19T11:42:28;57.09;8.60
6052;DHT22;3054;51.204;4.430;2022-07-19T11:44:55;58.29;7.82
6052;DHT22;3054;51.204;4.430;2022-07-19T11:47:22;59.04;7.59
6052;DHT22;3054;51.204;4.430;2022-07-19T11:49:51;59.53;7.01
6052;DHT22;3054;51.204;4.430;2022-07-19T11:52:18;57.13;5.31
6052;DHT22;3054;51.204;4.430;2022-07-19T11:54:58;53.93;6.32
6052;DHT22;3054;51.204;4.430;2022-07-19T11:57:26;51.42;7.63
6052;DHT22;3054;51.204;4.430;2022-07-19T11:59:53;49.47;8.63
6052;DHT22;3054;51.204;4.430;2022-07-19T12:02:20;47.98;9.48
6052;DHT22;3054;51.204;4.430;2022-07-19T12:04:47;47.02;10.15
6052;DHT22;3054;51.204;4.430;2022-07-19T12:07:17;46.13;10.62
6052;DHT22;3054;51.204;4.430;2022-07-19T12:09:45;45.56;10.96
6052;DHT22;3054;51.204;4.430;2022-07-19T12:12:13;45.05;11.14
6052;DHT22;3054;51.204;4.430;2022-07-19T12:14:41;44.50;11.43
6052;DHT22;3054;51.204;4.430;2022-07-19T12:17:10;44.01;11.47
6052;DHT22;3054;51.204;4.430;2022-07-19T12:19:42;43.51;11.67
6052;DHT22;3054;51.204;4.430;2022-07-19T12:22:29;43.19;11.85
6052;DHT22;3054;51.204;4.430;2022-07-19T12:24:56;42.83;12.07
6052;DHT22;3054;51.204;4.430;2022-07-19T12:27:23;42.66;12.20
6052;DHT22;3054;51.204;4.430;2022-07-19T12:29:54;42.58;12.20
6052;DHT22;3054;51.204;4.430;2022-07-19T12:32:27;42.41;12.17
6052;DHT22;3054;51.204;4.430;2022-07-19T12:34:56;42.26;12.35
6052;DHT22;3054;51.204;4.430;2022-07-19T12:37:26;42.04;12.62
6052;DHT22;3054;51.204;4.430;2022-07-19T12:39:59;41.79;12.88
6052;DHT22;3054;51.204;4.430;2022-07-19T12:42:26;41.71;12.97
6052;DHT22;3054;51.204;4.430;2022-07-19T12:45:01;41.58;12.93
6052;DHT22;3054;51.204;4.430;2022-07-19T12:47:28;41.52;12.97
6052;DHT22;3054;51.204;4.430;2022-07-19T12:49:55;41.47;13.04
6052;DHT22;3054;51.204;4.430;2022-07-19T12:52:22;41.32;13.04
6052;DHT22;3054;51.204;4.430;2022-07-19T12:54:51;41.17;13.05
6052;DHT22;3054;51.204;4.430;2022-07-19T12:57:19;41.05;13.07
6052;DHT22;3054;51.204;4.430;2022-07-19T12:59:47;40.93;13.08
6052;DHT22;3054;51.204;4.430;2022-07-19T13:02:15;40.85;13.10
6052;DHT22;3054;51.204;4.430;2022-07-19T13:04:45;40.81;13.09
6052;DHT22;3054;51.204;4.430;2022-07-19T13:07:13;40.78;13.04
6052;DHT22;3054;51.204;4.430;2022-07-19T13:09:40;40.66;13.06
6052;DHT22;3054;51.204;4.430;2022-07-19T13:12:08;40.57;13.10
6052;DHT22;3054;51.204;4.430;2022-07-19T13:14:37;40.50;13.28
6052;DHT22;3054;51.204;4.430;2022-07-19T13:17:05;40.44;13.38
6052;DHT22;3054;51.204;4.430;2022-07-19T13:19:32;40.37;13.36
6052;DHT22;3054;51.204;4.430;2022-07-19T13:21:59;40.27;13.49
6052;DHT22;3054;51.204;4.430;2022-07-19T13:24:26;40.19;13.63
6052;DHT22;3054;51.204;4.430;2022-07-19T13:26:53;40.14;13.70
6052;DHT22;3054;51.204;4.430;2022-07-19T13:29:20;40.08;13.65
6052;DHT22;3054;51.204;4.430;2022-07-19T13:31:49;39.97;13.72
6052;DHT22;3054;51.204;4.430;2022-07-19T13:34:18;39.88;13.87
6052;DHT22;3054;51.204;4.430;2022-07-19T13:36:45;39.80;14.02
6052;DHT22;3054;51.204;4.430;2022-07-19T13:39:12;39.79;14.03
6052;DHT22;3054;51.204;4.430;2022-07-19T13:41:39;39.73;14.11
6052;DHT22;3054;51.204;4.430;2022-07-19T13:44:07;39.69;14.31
6052;DHT22;3054;51.204;4.430;2022-07-19T13:46:34;39.71;14.42
6052;DHT22;3054;51.204;4.430;2022-07-19T13:49:02;39.65;14.54
6052;DHT22;3054;51.204;4.430;2022-07-19T13:51:29;39.61;14.68
6052;DHT22;3054;51.204;4.430;2022-07-19T13:53:56;39.58;14.77
6052;DHT22;3054;51.204;4.430;2022-07-19T13:56:24;39.53;14.94
6052;DHT22;3054;51.204;4.430;2022-07-19T13:58:50;39.52;15.00
6052;DHT22;3054;51.204;4.430;2022-07-19T14:01:18;39.47;15.06
6052;DHT22;3054;51.204;4.430;2022-07-19T14:03:46;39.40;15.05
6052;DHT22;3054;51.204;4.430;2022-07-19T14:06:15;39.39;15.16
6052;DHT22;3054;51.204;4.430;2022-07-19T14:08:42;39.37;15.23
6052;DHT22;3054;51.204;4.430;2022-07-19T14:11:09;39.34;15.39
6052;DHT22;3054;51.204;4.430;2022-07-19T14:13:37;39.30;15.52
6052;DHT22;3054;51.204;4.430;2022-07-19T14:16:04;39.28;15.39
6052;DHT22;3054;51.204;4.430;2022-07-19T14:18:32;39.25;15.34
6052;DHT22;3054;51.204;4.430;2022-07-19T14:20:58;39.20;15.42
6052;DHT22;3054;51.204;4.430;2022-07-19T14:23:27;39.19;15.49
6052;DHT22;3054;51.204;4.430;2022-07-19T14:25:54;39.11;15.66
6052;DHT22;3054;51.204;4.430;2022-07-19T14:28:21;39.08;15.73
6052;DHT22;3054;51.204;4.430;2022-07-19T14:30:49;39.05;15.90
6052;DHT22;3054;51.204;4.430;2022-07-19T14:33:16;39.06;15.86
6052;DHT22;3054;51.204;4.430;2022-07-19T14:35:42;38.99;15.96
6052;DHT22;3054;51.204;4.430;2022-07-19T14:38:09;38.96;16.14
6052;DHT22;3054;51.204;4.430;2022-07-19T14:40:38;38.95;16.27
6052;DHT22;3054;51.204;4.430;2022-07-19T14:43:04;38.93;16.34
6052;DHT22;3054;51.204;4.430;2022-07-19T14:45:32;38.95;16.36
6052;DHT22;3054;51.204;4.430;2022-07-19T14:47:59;38.90;16.29
6052;DHT22;3054;51.204;4.430;2022-07-19T14:50:26;38.88;16.22
6052;DHT22;3054;51.204;4.430;2022-07-19T14:52:53;38.83;16.29
6052;DHT22;3054;51.204;4.430;2022-07-19T14:55:20;38.83;16.29
6052;DHT22;3054;51.204;4.430;2022-07-19T14:57:48;38.82;16.24
6052;DHT22;3054;51.204;4.430;2022-07-19T15:00:15;38.81;16.20
6052;DHT22;3054;51.204;4.430;2022-07-19T15:02:42;38.76;16.27
6052;DHT22;3054;51.204;4.430;2022-07-19T15:05:09;38.77;16.42
6052;DHT22;3054;51.204;4.430;2022-07-19T15:07:36;38.75;16.40
6052;DHT22;3054;51.204;4.430;2022-07-19T15:10:04;38.70;16.42
6052;DHT22;3054;51.204;4.430;2022-07-19T15:12:32;38.67;16.42
6052;DHT22;3054;51.204;4.430;2022-07-19T15:15:01;38.66;16.45
6052;DHT22;3054;51.204;4.430;2022-07-19T15:17:28;38.65;16.52
6052;DHT22;3054;51.204;4.430;2022-07-19T15:19:55;38.63;16.50
6052;DHT22;3054;51.204;4.430;2022-07-19T15:22:22;38.62;16.45
6052;DHT22;3054;51.204;4.430;2022-07-19T15:24:49;38.61;16.45
6052;DHT22;3054;51.204;4.430;2022-07-19T15:27:16;38.54;16.50
6052;DHT22;3054;51.204;4.430;2022-07-19T15:29:43;38.59;16.39
6052;DHT22;3054;51.204;4.430;2022-07-19T15:32:11;38.55;16.36
6052;DHT22;3054;51.204;4.430;2022-07-19T15:34:40;38.52;16.35
6052;DHT22;3054;51.204;4.430;2022-07-19T15:37:07;38.55;16.33
6052;DHT22;3054;51.204;4.430;2022-07-19T15:39:34;38.52;16.20
6052;DHT22;3054;51.204;4.430;2022-07-19T15:42:01;38.49;16.16
6052;DHT22;3054;51.204;4.430;2022-07-19T15:44:27;38.49;16.03
6052;DHT22;3054;51.204;4.430;2022-07-19T15:46:54;38.51;15.80
6052;DHT22;3054;51.204;4.430;2022-07-19T15:49:23;38.53;15.51
6052;DHT22;3054;51.204;4.430;2022-07-19T15:51:50;38.51;15.31
6052;DHT22;3054;51.204;4.430;2022-07-19T15:54:17;38.56;15.27
6052;DHT22;3054;51.204;4.430;2022-07-19T15:56:45;38.52;15.29
6052;DHT22;3054;51.204;4.430;2022-07-19T15:59:12;38.52;15.28
6052;DHT22;3054;51.204;4.430;2022-07-19T16:01:38;38.48;15.29
6052;DHT22;3054;51.204;4.430;2022-07-19T16:04:05;38.45;15.25
6052;DHT22;3054;51.204;4.430;2022-07-19T16:06:34;38.47;15.22
6052;DHT22;3054;51.204;4.430;2022-07-19T16:09:01;38.43;15.25
6052;DHT22;3054;51.204;4.430;2022-07-19T16:11:29;38.43;15.11